Time;durP1;ratioP1;P1;durP2;ratioP2;P2;SDS_P1;SDS_P2;PMS_P1;PMS_P2;Temp;Humidity;BMP_temperature;BMP_pressure;BME280_temperature;BME280_humidity;BME280_pressure;Samples;Min_cycle;Max_cycle;Signal;HPM_P1;HPM_P2
2022/05/10 00:00:42;;;;;;;4.72;3.22;;;;;;;12.09;56.85;99403.58;1742261;81;25459;-62
2022/05/10 00:03:08;;;;;;;6.55;3.37;;;;;;;12.05;56.76;99401.17;1743114;82;25222;-62
2022/05/10 00:05:39;;;;;;;6.33;2.90;;;;;;;12.04;56.90;99398.18;1742612;82;27580;-61
2022/05/10 00:08:12;;;;;;;6.47;3.77;;;;;;;11.98;57.09;99404.89;1743388;82;25414;-60
2022/05/10 00:10:39;;;;;;;6.67;3.58;;;;;;;11.94;56.91;99398.39;1743177;81;27550;-61
2022/05/10 00:13:06;;;;;;;8.40;4.08;;;;;;;11.91;57.07;99399.23;1743166;82;25656;-62
2022/05/10 00:15:33;;;;;;;4.40;2.60;;;;;;;11.89;56.94;99408.33;1743174;81;25724;-61
2022/05/10 00:17:59;;;;;;;7.95;3.65;;;;;;;11.84;57.57;99400.75;1743058;81;26361;-62
2022/05/10 00:20:27;;;;;;;7.03;3.60;;;;;;;11.78;57.40;99398.67;1743011;81;25655;-62
2022/05/10 00:22:54;;;;;;;5.75;3.58;;;;;;;11.74;57.43;99400.38;1742869;82;28287;-61
2022/05/10 00:25:27;;;;;;;9.35;3.52;;;;;;;11.71;57.54;99403.76;1742750;81;25705;-61
2022/05/10 00:27:54;;;;;;;6.10;3.52;;;;;;;11.66;57.91;99396.43;1742991;81;25598;-61
2022/05/10 00:30:21;;;;;;;9.25;3.90;;;;;;;11.63;57.51;99399.20;1742759;81;25629;-61
2022/05/10 00:32:47;;;;;;;7.25;4.55;;;;;;;11.59;57.67;99394.62;1741776;81;25658;-60
2022/05/10 00:35:18;;;;;;;7.67;3.45;;;;;;;11.55;57.75;99399.34;1740728;81;27381;-60
2022/05/10 00:37:47;;;;;;;;;;;;;;;11.52;57.76;99392.28;1745530;82;25468;-60
2022/05/10 00:40:17;;;;;;;6.75;3.77;;;;;;;11.51;58.03;99394.20;1743014;81;25645;-61
2022/05/10 00:43:20;;;;;;;7.12;3.72;;;;;;;11.46;57.79;99394.86;1743224;81;25495;-60
2022/05/10 00:46:19;;;;;;;6.95;3.92;;;;;;;11.40;58.00;99390.81;1743151;81;25436;-61
2022/05/10 00:49:22;;;;;;;7.45;3.45;;;;;;;11.37;58.17;99389.25;1743176;82;27628;-61
2022/05/10 00:52:06;;;;;;;6.78;3.05;;;;;;;11.30;58.11;99389.63;1743035;81;25634;-59
2022/05/10 00:55:05;;;;;;;6.20;3.62;;;;;;;11.22;58.42;99386.19;1743211;81;25611;-61
2022/05/10 00:57:43;;;;;;;6.47;3.27;;;;;;;11.21;58.14;99375.80;1688437;85;25758;-61
2022/05/10 01:00:18;;;;;;;8.53;3.55;;;;;;;11.19;58.40;99378.59;1688411;85;25542;-61
2022/05/10 01:03:01;;;;;;;4.33;2.75;;;;;;;11.16;58.24;99377.23;1687353;85;27434;-61
2022/05/10 01:06:10;;;;;;;6.62;3.50;;;;;;;11.12;58.27;99378.95;1706062;83;25718;-61
2022/05/10 01:08:59;;;;;;;9.55;3.60;;;;;;;11.11;58.34;99373.22;1711400;83;25485;-61
2022/05/10 01:11:40;;;;;;;5.30;3.37;;;;;;;11.04;58.04;99368.94;1711257;83;25690;-61
2022/05/10 01:14:14;;;;;;;8.13;3.47;;;;;;;11.02;58.16;99371.70;1711134;83;25674;-61
2022/05/10 01:16:41;;;;;;;6.70;3.20;;;;;;;10.97;58.36;99362.99;1710398;83;28416;-60
2022/05/10 01:19:07;;;;;;;4.85;3.20;;;;;;;10.92;58.36;99364.47;1711297;83;26035;-61
2022/05/10 01:22:09;;;;;;;7.17;3.17;;;;;;;10.90;58.23;99362.02;1711144;83;25578;-61
2022/05/10 01:25:04;;;;;;;5.60;3.35;;;;;;;10.87;58.40;99362.62;1711220;83;25756;-61
2022/05/10 01:27:53;;;;;;;6.05;3.08;;;;;;;10.83;58.38;99360.22;1711673;83;25783;-58
2022/05/10 01:30:28;;;;;;;7.72;3.22;;;;;;;10.82;58.32;99360.52;1648800;87;27450;-60
2022/05/10 01:33:29;;;;;;;6.95;3.15;;;;;;;10.79;58.45;99361.91;1682790;85;25860;-59
2022/05/10 01:36:07;;;;;;;7.20;3.55;;;;;;;10.78;58.64;99360.28;1682481;85;25663;-60
2022/05/10 01:39:10;;;;;;;6.35;3.17;;;;;;;10.74;58.44;99357.89;1681425;85;25754;-59
2022/05/10 01:41:54;;;;;;;4.53;2.52;;;;;;;10.71;58.56;99354.38;1682836;85;25726;-59
2022/05/10 01:44:31;;;;;;;6.20;3.20;;;;;;;10.64;58.79;99349.25;1682864;85;27235;-60
2022/05/10 01:47:18;;;;;;;4.78;2.98;;;;;;;10.56;58.80;99358.16;1682372;85;25702;-59
2022/05/10 01:49:52;;;;;;;6.45;2.98;;;;;;;10.52;58.85;99351.08;1682951;85;25717;-61
2022/05/10 01:52:27;;;;;;;5.95;3.37;;;;;;;10.51;58.95;99350.83;1682070;85;25761;-60
2022/05/10 01:55:24;;;;;;;6.30;3.10;;;;;;;10.50;58.76;99355.48;1682807;85;25508;-62
2022/05/10 01:57:59;;;;;;;5.53;2.58;;;;;;;10.48;59.18;99352.79;1682740;85;27191;-61
2022/05/10 02:00:37;;;;;;;7.55;4.33;;;;;;;10.43;58.87;99345.42;1682794;85;25851;-61
2022/05/10 02:03:15;;;;;;;6.33;3.70;;;;;;;10.39;58.93;99346.55;1682247;85;25773;-61
2022/05/10 02:06:11;;;;;;;5.22;2.87;;;;;;;10.35;59.05;99343.33;1660589;85;25859;-61
2022/05/10 02:09:13;;;;;;;5.08;3.00;;;;;;;10.29;59.15;99348.08;1738005;82;25412;-60
2022/05/10 02:11:45;;;;;;;6.53;3.10;;;;;;;10.24;59.36;99342.66;1744129;82;27489;-61
2022/05/10 02:14:29;;;;;;;6.47;3.08;;;;;;;10.23;59.38;99341.03;1741001;82;26052;-61
2022/05/10 02:17:15;;;;;;;5.22;3.22;;;;;;;10.14;59.72;99343.05;1748286;81;25630;-61
2022/05/10 02:20:09;;;;;;;6.65;3.42;;;;;;;10.07;59.92;99340.43;1748596;82;26432;-61
2022/05/10 02:22:40;;;;;;;4.87;2.65;;;;;;;10.01;60.04;99342.40;1748709;82;25590;-61
2022/05/10 02:25:15;;;;;;;6.70;3.67;;;;;;;10.00;60.13;99338.04;1748715;82;27434;-61
2022/05/10 02:27:49;;;;;;;8.48;3.62;;;;;;;9.94;60.35;99344.14;1748294;81;25586;-61
2022/05/10 02:30:20;;;;;;;6.70;3.70;;;;;;;9.88;60.38;99335.15;1748480;81;25496;-61
2022/05/10 02:33:06;;;;;;;8.23;3.87;;;;;;;9.89;60.57;99337.34;1748723;82;25737;-61
2022/05/10 02:35:55;;;;;;;6.53;3.47;;;;;;;9.83;60.63;99333.86;1748389;81;25431;-60
2022/05/10 02:38:39;;;;;;;7.10;3.27;;;;;;;9.82;60.32;99338.26;1747852;81;27637;-61
2022/05/10 02:41:14;;;;;;;5.85;3.35;;;;;;;9.78;60.73;99332.00;1748731;82;25578;-60
2022/05/10 02:43:56;;;;;;;7.05;3.58;;;;;;;9.74;60.88;99330.96;1748744;82;25483;-61
2022/05/10 02:46:24;;;;;;;6.75;3.22;;;;;;;9.68;61.32;99334.03;1748731;81;25618;-60
2022/05/10 02:48:51;;;;;;;8.30;3.90;;;;;;;9.63;61.26;99338.47;1748444;82;25462;-60
2022/05/10 02:51:18;;;;;;;7.10;2.87;;;;;;;9.59;61.44;99338.80;1748770;81;28218;-60
2022/05/10 02:53:45;;;;;;;5.30;3.00;;;;;;;9.58;61.54;99337.72;1748498;82;25574;-61
2022/05/10 02:56:16;;;;;;;9.23;3.90;;;;;;;9.54;61.73;99334.19;1748766;81;25585;-60
2022/05/10 02:59:02;;;;;;;6.15;3.05;;;;;;;9.49;62.20;99336.97;1748755;81;25435;-61
2022/05/10 03:02:01;;;;;;;6.85;3.50;;;;;;;9.48;61.88;99337.26;1748492;81;25439;-61
2022/05/10 03:04:41;;;;;;;7.20;3.35;;;;;;;9.50;61.58;99333.69;1748007;81;28331;-60
2022/05/10 03:07:10;;;;;;;4.75;3.08;;;;;;;9.47;61.71;99335.06;1742095;81;25602;-61
2022/05/10 03:09:36;;;;;;;5.83;3.27;;;;;;;9.48;61.82;99334.52;1743115;81;25641;-60
2022/05/10 03:12:07;;;;;;;6.80;3.62;;;;;;;9.47;61.81;99339.16;1743144;81;26137;-61
2022/05/10 03:14:34;;;;;;;7.00;3.60;;;;;;;9.49;61.70;99337.51;1743205;81;25678;-61
2022/05/10 03:17:03;;;;;;;6.85;3.17;;;;;;;9.51;61.61;99337.50;1739111;81;27424;-61
2022/05/10 03:19:28;;;;;;;7.30;4.30;;;;;;;9.56;61.55;99327.06;1742607;81;25657;-61
2022/05/10 03:21:54;;;;;;;8.15;3.83;;;;;;;9.60;61.38;99325.37;1743333;82;25598;-61
2022/05/10 03:24:20;;;;;;;6.97;3.72;;;;;;;9.60;61.35;99325.91;1743113;82;26335;-61
2022/05/10 03:26:49;;;;;;;7.22;3.70;;;;;;;9.59;61.26;99322.92;1743201;82;25607;-61
2022/05/10 03:29:16;;;;;;;5.78;3.40;;;;;;;9.57;61.34;99324.58;1743281;81;28120;-61
2022/05/10 03:31:43;;;;;;;6.30;3.27;;;;;;;9.53;61.29;99327.06;1743164;82;25466;-60
2022/05/10 03:36:54;;;;;;;8.68;4.25;;;;;;;9.48;61.51;99327.68;1742753;82;25593;-60
2022/05/10 03:39:20;;;;;;;7.78;4.03;;;;;;;9.43;61.75;99327.72;1742926;82;25464;-61
2022/05/10 03:41:47;;;;;;;6.17;3.72;;;;;;;9.41;61.68;99324.73;1743122;81;27407;-61
2022/05/10 03:44:12;;;;;;;8.93;3.83;;;;;;;9.41;61.80;99322.54;1743116;82;25662;-61
2022/05/10 03:46:38;;;;;;;8.88;3.72;;;;;;;9.41;61.54;99326.10;1732530;82;25452;-61
2022/05/10 03:49:04;;;;;;;8.98;3.67;;;;;;;9.44;61.73;99318.43;1742925;81;25660;-60
2022/05/10 03:51:32;;;;;;;6.08;3.58;;;;;;;9.42;61.94;99317.35;1733632;81;25435;-62
2022/05/10 03:53:58;;;;;;;5.60;3.72;;;;;;;9.44;62.03;99312.39;1729799;80;27479;-60
2022/05/10 03:56:24;;;;;;;7.37;3.70;;;;;;;9.48;61.76;99320.84;1728111;81;25684;-60
2022/05/10 03:58:50;;;;;;;7.40;3.67;;;;;;;9.49;62.07;99316.99;1736399;82;25684;-61
2022/05/10 04:01:21;;;;;;;10.18;3.47;;;;;;;9.53;61.96;99309.86;1747581;82;25670;-61
2022/05/10 04:03:48;;;;;;;4.87;2.77;;;;;;;9.60;61.71;99308.13;1747515;82;25696;-61
2022/05/10 04:06:15;;;;;;;5.70;3.62;;;;;;;9.61;61.65;99300.98;1751335;81;28232;-62
2022/05/10 04:08:43;;;;;;;5.40;2.98;;;;;;;9.70;61.51;99309.94;1752819;81;25674;-62
2022/05/10 04:11:15;;;;;;;9.05;4.80;;;;;;;9.78;61.04;99314.75;1752959;81;26376;-62
2022/05/10 04:13:46;;;;;;;4.78;2.83;;;;;;;9.83;60.84;99311.97;1735827;80;26193;-60
2022/05/10 04:16:16;;;;;;;7.28;3.27;;;;;;;9.90;60.52;99312.41;1712742;83;25650;-59
2022/05/10 04:18:49;;;;;;;4.75;2.45;;;;;;;9.95;60.51;99312.08;1714571;83;27426;-61
2022/05/10 04:21:31;;;;;;;5.97;3.62;;;;;;;9.98;60.46;99313.69;1714355;83;25797;-61
2022/05/10 04:23:56;;;;;;;6.10;3.50;;;;;;;10.07;60.34;99313.84;1712473;82;25749;-61
2022/05/10 04:26:24;;;;;;;7.72;3.67;;;;;;;10.14;60.01;99314.86;1714014;83;25671;-61
2022/05/10 04:28:51;;;;;;;12.30;3.55;;;;;;;10.22;60.11;99312.81;1713939;83;26420;-62
2022/05/10 04:31:18;;;;;;;5.33;3.15;;;;;;;10.36;59.96;99310.73;1713726;83;27521;-62
2022/05/10 04:33:44;;;;;;;8.68;4.58;;;;;;;10.50;59.58;99310.81;1713904;83;25875;-61
2022/05/10 04:36:10;;;;;;;8.38;3.60;;;;;;;10.56;59.25;99314.31;1713950;83;25757;-62
2022/05/10 04:38:36;;;;;;;7.67;3.77;;;;;;;10.65;59.63;99315.27;1713567;83;27571;-62
2022/05/10 04:43:47;;;;;;;7.22;3.70;;;;;;;10.91;58.87;99309.38;1733251;82;25711;-60
2022/05/10 04:46:13;;;;;;;4.37;3.02;;;;;;;10.99;58.10;99314.16;1743815;81;25891;-61
2022/05/10 04:48:40;;;;;;;7.22;3.27;;;;;;;11.01;58.03;99315.23;1744074;81;25686;-62
2022/05/10 04:51:07;;;;;;;7.15;3.80;;;;;;;10.99;57.93;99317.44;1743894;82;25740;-61
2022/05/10 04:53:35;;;;;;;8.05;3.50;;;;;;;10.97;57.94;99311.47;1743793;82;25755;-62
2022/05/10 04:56:03;;;;;;;4.83;3.00;;;;;;;10.97;57.95;99314.20;1744359;82;28335;-60
2022/05/10 04:58:29;;;;;;;5.62;3.10;;;;;;;10.97;57.60;99315.00;1750137;81;25713;-62
2022/05/10 05:01:00;;;;;;;6.67;3.75;;;;;;;11.02;57.83;99321.78;1750942;82;25423;-62
2022/05/10 05:03:27;;;;;;;6.50;3.87;;;;;;;11.02;57.95;99322.33;1750995;81;26199;-62
2022/05/10 05:05:53;;;;;;;5.95;3.40;;;;;;;11.12;57.85;99315.87;1746704;81;25414;-62
2022/05/10 05:08:20;;;;;;;3.95;2.40;;;;;;;11.22;57.67;99322.54;1743089;81;27329;-63
2022/05/10 05:10:46;;;;;;;8.28;3.98;;;;;;;11.32;57.62;99326.22;1742847;81;25398;-62
2022/05/10 05:13:16;;;;;;;7.45;3.92;;;;;;;11.42;57.39;99327.40;1742984;82;25453;-62
2022/05/10 05:15:42;;;;;;;6.67;4.72;;;;;;;11.46;57.24;99321.58;1739007;81;26167;-61
2022/05/10 05:18:10;;;;;;;6.80;3.87;;;;;;;11.53;57.57;99324.73;1742927;81;25409;-62
2022/05/10 05:20:39;;;;;;;7.92;4.72;;;;;;;11.59;57.25;99324.62;1742668;81;27406;-63
2022/05/10 05:23:08;;;;;;;6.80;3.72;;;;;;;11.76;57.44;99329.50;1742918;81;25453;-63
2022/05/10 05:25:38;;;;;;;6.12;4.40;;;;;;;11.89;56.73;99321.81;1742877;81;25658;-63
2022/05/10 05:28:06;;;;;;;9.43;4.30;;;;;;;11.98;56.76;99323.31;1742967;81;25682;-62
2022/05/10 05:30:34;;;;;;;7.05;4.10;;;;;;;12.11;56.57;99327.73;1743016;81;25452;-62
2022/05/10 05:33:02;;;;;;;10.55;4.58;;;;;;;12.17;56.50;99317.70;1742685;81;27461;-60
2022/05/10 05:35:29;;;;;;;9.40;4.80;;;;;;;12.22;56.61;99318.16;1742903;82;25847;-61
2022/05/10 05:37:56;;;;;;;8.55;4.15;;;;;;;12.32;56.37;99323.17;1742836;81;25847;-62
2022/05/10 05:40:24;;;;;;;9.78;4.42;;;;;;;12.40;56.35;99321.05;1742899;81;25662;-58
2022/05/10 05:42:52;;;;;;;10.48;3.95;;;;;;;12.57;56.21;99316.83;1743023;82;25624;-62
2022/05/10 05:45:23;;;;;;;5.92;3.90;;;;;;;12.74;55.56;99328.53;1742936;81;27572;-60
2022/05/10 05:47:52;;;;;;;7.92;4.35;;;;;;;12.93;56.01;99322.86;1743011;81;25713;-62
2022/05/10 05:50:22;;;;;;;9.05;4.08;;;;;;;13.14;55.58;99330.58;1742951;82;25646;-62
2022/05/10 05:52:50;;;;;;;30.75;5.97;;;;;;;13.36;54.83;99327.55;1743109;81;25424;-62
2022/05/10 05:55:18;;;;;;;7.15;3.40;;;;;;;13.46;54.92;99325.08;1742921;82;25839;-62
2022/05/10 05:57:46;;;;;;;9.05;3.98;;;;;;;13.55;54.25;99325.96;1743039;81;28128;-62
2022/05/10 06:00:18;;;;;;;12.25;4.30;;;;;;;13.63;54.21;99327.13;1743041;82;25740;-61
2022/05/10 06:02:45;;;;;;;8.80;5.45;;;;;;;13.82;54.01;99328.27;1743195;81;25413;-62
2022/05/10 06:05:11;;;;;;;7.70;4.22;;;;;;;13.99;53.64;99323.94;1742838;81;25718;-60
2022/05/10 06:07:38;;;;;;;12.15;4.72;;;;;;;14.08;53.33;99320.64;1750980;82;25585;-61
2022/05/10 06:10:07;;;;;;;8.13;4.37;;;;;;;14.07;53.89;99321.75;1750564;82;27431;-61
2022/05/10 06:12:34;;;;;;;10.70;4.40;;;;;;;14.28;53.34;99328.84;1750827;82;25983;-61
2022/05/10 06:15:07;;;;;;;7.83;4.53;;;;;;;14.21;53.38;99325.76;1751028;82;25619;-60
2022/05/10 06:17:30;;;;;;;7.28;4.30;;;;;;;14.39;53.28;99322.45;1750940;81;25618;-62
2022/05/10 06:19:56;;;;;;;8.90;4.30;;;;;;;14.52;52.87;99330.34;1751052;81;25602;-58
2022/05/10 06:22:23;;;;;;;8.85;3.83;;;;;;;14.58;52.59;99327.41;1751163;82;27597;-63
2022/05/10 06:24:50;;;;;;;11.95;5.20;;;;;;;14.65;52.50;99325.78;1750713;82;25591;-62
2022/05/10 06:27:18;;;;;;;5.92;4.42;;;;;;;14.79;52.87;99324.27;1751164;82;25617;-63
2022/05/10 06:29:45;;;;;;;10.50;4.28;;;;;;;14.98;51.90;99320.92;1751073;82;25783;-62
2022/05/10 06:32:15;;;;;;;11.03;4.47;;;;;;;15.09;52.23;99323.59;1750899;82;25431;-60
2022/05/10 06:34:42;;;;;;;11.00;3.95;;;;;;;15.30;52.05;99321.50;1750377;81;26654;-63
2022/05/10 06:38:16;;;;;;;6.95;4.15;;;;;;;15.41;51.69;99315.87;1750870;82;25585;-60
2022/05/10 06:39:43;;;;;;;8.28;3.80;;;;;;;15.58;51.31;99327.17;1751834;81;25412;-58
2022/05/10 06:42:10;;;;;;;11.65;4.40;;;;;;;15.61;50.81;99321.80;1750710;82;25618;-58
2022/05/10 06:44:36;;;;;;;8.00;4.17;;;;;;;16.11;50.42;99310.34;1751487;82;25456;-56
2022/05/10 06:47:04;;;;;;;12.03;4.30;;;;;;;16.11;50.42;99310.34;1750923;82;27477;-56
2022/05/10 06:49:30;;;;;;;7.50;4.45;;;;;;;16.32;49.92;99318.66;1750800;82;25621;-58
2022/05/10 06:51:57;;;;;;;11.15;5.08;;;;;;;16.32;49.92;99318.66;1750836;81;25609;-62
2022/05/10 06:54:24;;;;;;;8.65;3.80;;;;;;;16.56;50.01;99312.45;1750944;82;25653;-59
2022/05/10 06:56:50;;;;;;;7.12;3.90;;;;;;;16.77;49.33;99317.17;1751253;82;25650;-62
2022/05/10 06:59:17;;;;;;;9.73;4.00;;;;;;;16.74;49.42;99319.23;1750774;82;27398;-61
2022/05/10 07:01:43;;;;;;;9.18;4.47;;;;;;;17.03;48.45;99315.29;1751454;82;25437;-60
2022/05/10 07:04:11;;;;;;;5.30;3.05;;;;;;;17.17;47.86;99314.45;1750710;82;25515;-61
2022/05/10 07:06:38;;;;;;;6.15;3.67;;;;;;;17.26;48.12;99314.35;1753128;81;25887;-62
2022/05/10 07:09:14;;;;;;;5.78;3.80;;;;;;;17.46;48.27;99306.87;1756264;81;25660;-61
2022/05/10 07:11:40;;;;;;;6.12;4.10;;;;;;;17.64;47.39;99307.45;1756067;81;27326;-58
2022/05/10 07:14:07;;;;;;;6.92;4.05;;;;;;;17.75;47.65;99309.20;1752839;81;25658;-62
2022/05/10 07:16:33;;;;;;;6.22;3.75;;;;;;;18.01;46.90;99312.19;1756536;81;25690;-62
2022/05/10 07:18:59;;;;;;;19.90;5.97;;;;;;;18.20;46.83;99313.59;1756478;81;26302;-62
2022/05/10 07:21:25;;;;;;;29.82;8.95;;;;;;;18.35;47.09;99314.25;1756489;81;25674;-62
2022/05/10 07:23:51;;;;;;;10.30;4.50;;;;;;;18.68;46.24;99305.47;1756400;81;27447;-63
2022/05/10 07:26:18;;;;;;;7.22;3.55;;;;;;;18.88;45.76;99307.81;1756283;81;25669;-62
2022/05/10 07:28:44;;;;;;;8.25;3.98;;;;;;;19.00;45.14;99307.55;1756294;81;25670;-61
2022/05/10 07:31:11;;;;;;;6.58;3.42;;;;;;;19.19;45.42;99305.48;1756272;81;25595;-62
2022/05/10 07:33:38;;;;;;;8.20;3.80;;;;;;;19.54;44.52;99315.09;1756373;81;25653;-62
2022/05/10 07:36:23;;;;;;;7.42;3.83;;;;;;;19.53;44.90;99308.75;1756208;81;27647;-63
2022/05/10 07:38:54;;;;;;;5.22;3.70;;;;;;;19.73;43.89;99308.02;1756077;81;25614;-62
2022/05/10 07:41:23;;;;;;;6.67;4.15;;;;;;;20.01;44.15;99308.48;1756288;81;25628;-61
2022/05/10 07:43:51;;;;;;;10.65;3.92;;;;;;;20.24;43.81;99307.83;1756270;81;25460;-63
2022/05/10 07:46:18;;;;;;;12.50;4.62;;;;;;;20.48;43.28;99301.76;1756572;81;25431;-63
2022/05/10 07:48:45;;;;;;;7.45;4.03;;;;;;;20.62;42.65;99299.86;1756124;81;29528;-62
2022/05/10 07:51:12;;;;;;;10.40;3.70;;;;;;;20.91;42.71;99302.67;1756233;81;25412;-59
2022/05/10 07:53:41;;;;;;;6.45;3.83;;;;;;;21.19;42.12;99305.75;1756216;81;25785;-63
2022/05/10 07:56:08;;;;;;;8.00;3.77;;;;;;;21.42;40.51;99305.56;1756054;81;25597;-63
2022/05/10 07:58:35;;;;;;;21.30;5.05;;;;;;;21.68;41.69;99295.63;1756099;81;25621;-62
2022/05/10 08:01:04;;;;;;;7.17;3.20;;;;;;;22.00;40.60;99292.56;1756060;81;27476;-63
2022/05/10 08:03:32;;;;;;;6.67;3.60;;;;;;;22.43;39.31;99299.30;1756184;81;25658;-62
2022/05/10 08:06:01;;;;;;;5.40;3.37;;;;;;;22.74;39.80;99297.13;1755900;81;25661;-62
2022/05/10 08:08:33;;;;;;;7.10;3.47;;;;;;;22.99;39.46;99299.37;1752489;81;25759;-63
2022/05/10 08:11:02;;;;;;;6.85;3.60;;;;;;;23.06;37.76;99293.27;1756483;81;25420;-62
2022/05/10 08:13:33;;;;;;;4.67;3.10;;;;;;;22.91;37.79;99290.92;1756466;81;27366;-63
2022/05/10 08:16:01;;;;;;;7.05;3.08;;;;;;;23.10;37.14;99292.50;1756289;81;25745;-63
2022/05/10 08:18:28;;;;;;;3.60;2.85;;;;;;;23.16;37.37;99283.98;1756305;81;25720;-59
2022/05/10 08:20:58;;;;;;;5.03;3.02;;;;;;;23.41;37.31;99284.26;1756254;81;25677;-58
2022/05/10 08:23:27;;;;;;;;;;;;;;;23.40;35.49;99285.43;1758862;81;25652;-62
2022/05/10 08:25:56;;;;;;;8.48;3.30;;;;;;;23.29;35.94;99288.09;1756367;81;27432;-64
2022/05/10 08:28:25;;;;;;;3.90;2.87;;;;;;;23.26;36.49;99283.27;1756281;81;25636;-64
2022/05/10 08:30:53;;;;;;;12.63;3.77;;;;;;;23.12;35.11;99285.95;1756469;81;25607;-64
2022/05/10 08:33:24;;;;;;;8.45;3.47;;;;;;;23.00;35.80;99281.44;1756337;81;25606;-65
2022/05/10 08:35:55;;;;;;;8.35;2.80;;;;;;;23.05;36.03;99283.28;1755732;81;25460;-59
2022/05/10 08:38:23;;;;;;;7.50;3.55;;;;;;;23.03;34.73;99281.45;1756596;81;27468;-63
2022/05/10 08:41:27;;;;;;;8.73;2.87;;;;;;;23.26;34.98;99274.10;1755904;81;25444;-64
2022/05/10 08:44:16;;;;;;;4.17;2.50;;;;;;;23.82;34.79;99279.76;1756551;81;25518;-64
2022/05/10 08:46:46;;;;;;;5.70;2.80;;;;;;;24.30;32.51;99277.45;1756238;81;25650;-65
2022/05/10 08:49:24;;;;;;;3.67;2.50;;;;;;;24.22;33.59;99278.63;1737705;81;25637;-64
2022/05/10 08:51:52;;;;;;;5.00;2.08;;;;;;;24.56;32.68;99277.58;1752927;81;29523;-64
2022/05/10 08:54:20;;;;;;;4.33;2.42;;;;;;;24.47;29.56;99275.16;1756332;81;25729;-64
2022/05/10 08:57:12;;;;;;;4.83;2.17;;;;;;;24.10;30.73;99278.92;1756250;81;25656;-64
2022/05/10 09:00:12;;;;;;;3.87;2.45;;;;;;;24.43;30.36;99277.92;1755959;81;26384;-64
2022/05/10 09:02:49;;;;;;;3.45;2.25;;;;;;;24.98;30.07;99268.30;1756353;81;25464;-64
2022/05/10 09:05:32;;;;;;;3.27;2.40;;;;;;;25.15;28.93;99266.73;1750940;81;26003;-64
2022/05/10 09:08:37;;;;;;;4.20;2.58;;;;;;;25.27;28.81;99260.55;1755966;81;25725;-64
2022/05/10 09:11:08;;;;;;;3.92;2.30;;;;;;;25.62;28.88;99263.77;1756532;81;25424;-65
2022/05/10 09:13:36;;;;;;;4.40;2.55;;;;;;;25.13;29.14;99259.93;1756425;81;25641;-58
2022/05/10 09:16:07;;;;;;;4.42;2.60;;;;;;;25.52;29.30;99258.32;1756387;81;25642;-62
2022/05/10 09:18:44;;;;;;;6.55;2.40;;;;;;;25.78;27.62;99259.13;1756301;81;27326;-60
2022/05/10 09:21:23;;;;;;;4.30;2.37;;;;;;;25.67;28.29;99243.70;1755776;81;25656;-62
2022/05/10 09:24:20;;;;;;;3.10;2.10;;;;;;;25.52;27.96;99245.11;1756727;81;25562;-65
2022/05/10 09:26:53;;;;;;;2.33;2.10;;;;;;;25.76;27.03;99244.09;1755697;81;26591;-65
2022/05/10 09:29:41;;;;;;;5.05;2.30;;;;;;;26.11;27.25;99238.81;1756467;81;25597;-65
2022/05/10 09:35:22;;;;;;;3.47;2.30;;;;;;;26.52;26.30;99235.25;1755940;81;25905;-64
2022/05/10 09:37:54;;;;;;;4.95;2.30;;;;;;;26.56;27.16;99228.41;1756281;81;25704;-64
2022/05/10 09:40:48;;;;;;;4.00;2.20;;;;;;;26.73;26.82;99227.30;1754090;81;25658;-65
2022/05/10 09:43:33;;;;;;;4.35;2.40;;;;;;;26.97;26.52;99221.13;1756435;81;25590;-65
2022/05/10 09:46:24;;;;;;;4.78;2.87;;;;;;;27.18;27.02;99222.41;1756354;81;28068;-64
2022/05/10 09:48:51;;;;;;;3.33;2.25;;;;;;;27.26;27.21;99220.94;1755939;81;25435;-63
2022/05/10 09:51:28;;;;;;;5.80;2.67;;;;;;;27.08;25.98;99220.46;1756271;81;25605;-62
2022/05/10 09:53:57;;;;;;;3.12;2.05;;;;;;;26.34;26.67;99215.67;1755943;81;25470;-61
2022/05/10 09:56:39;;;;;;;3.27;2.50;;;;;;;25.93;26.96;99221.99;1756437;81;25645;-60
2022/05/10 09:59:20;;;;;;;3.70;2.27;;;;;;;26.01;27.33;99213.76;1756318;81;27481;-58
2022/05/10 10:01:54;;;;;;;4.55;2.62;;;;;;;26.50;27.19;99210.96;1705058;84;45922;-63
2022/05/10 10:04:34;;;;;;;6.15;3.50;;;;;;;27.28;28.46;99207.23;1704076;84;25548;-60
2022/05/10 10:07:13;;;;;;;3.35;2.55;;;;;;;28.01;26.20;99207.33;1701865;84;25593;-64
2022/05/10 10:09:45;;;;;;;4.83;2.60;;;;;;;28.50;26.56;99204.95;1695499;84;25676;-64
2022/05/10 10:12:41;;;;;;;7.67;2.40;;;;;;;28.73;24.97;99195.56;1695886;84;27959;-65
2022/05/10 10:15:22;;;;;;;2.40;2.10;;;;;;;28.86;25.19;99195.16;1695568;84;25479;-65
2022/05/10 10:18:03;;;;;;;4.85;2.42;;;;;;;28.80;25.65;99201.09;1695887;84;25701;-64
2022/05/10 10:20:41;;;;;;;2.27;2.08;;;;;;;28.43;25.32;99202.22;1695418;84;26602;-59
2022/05/10 10:23:28;;;;;;;3.75;2.40;;;;;;;28.25;24.53;99203.23;1695363;84;25804;-61
2022/05/10 10:25:59;;;;;;;5.75;2.27;;;;;;;28.27;24.94;99194.36;1695401;84;27478;-61
2022/05/10 10:28:31;;;;;;;3.45;2.27;;;;;;;28.43;24.72;99195.17;1695272;84;25531;-63
2022/05/10 10:31:08;;;;;;;3.45;2.30;;;;;;;28.80;25.40;99192.03;1695643;84;25629;-62
2022/05/10 10:33:41;;;;;;;2.95;2.65;;;;;;;29.16;23.93;99189.25;1695435;84;25656;-60
2022/05/10 10:36:24;;;;;;;5.83;2.72;;;;;;;29.46;25.08;99178.87;1695643;84;25628;-62
2022/05/10 10:38:58;;;;;;;3.55;2.58;;;;;;;29.73;24.14;99175.97;1729118;82;28514;-64
2022/05/10 10:41:42;;;;;;;4.42;2.30;;;;;;;29.40;23.07;99163.86;1748129;82;25667;-64
2022/05/10 10:44:28;;;;;;;3.58;2.30;;;;;;;29.27;24.67;99167.91;1748198;82;25574;-59
2022/05/10 10:47:16;;;;;;;4.33;2.98;;;;;;;29.35;23.04;99167.77;1748062;82;25431;-63
2022/05/10 10:49:57;;;;;;;4.62;2.90;;;;;;;29.24;23.54;99165.95;1748234;82;25578;-64
2022/05/10 10:52:25;;;;;;;6.40;4.10;;;;;;;29.12;22.73;99161.72;1746563;82;28342;-63
2022/05/10 10:54:52;;;;;;;4.55;2.90;;;;;;;29.18;23.25;99153.55;1718569;82;25683;-64
2022/05/10 10:57:29;;;;;;;3.65;2.50;;;;;;;29.29;23.96;99152.77;1748293;82;25428;-64
2022/05/10 11:00:07;;;;;;;3.58;2.52;;;;;;;29.54;23.33;99157.77;1743181;82;25463;-64
2022/05/10 11:03:13;;;;;;;3.60;2.33;;;;;;;29.67;23.59;99153.09;1729363;82;25727;-62
2022/05/10 11:06:17;;;;;;;3.67;2.55;;;;;;;29.99;23.27;99151.47;1732619;82;27228;-64
2022/05/10 11:09:01;;;;;;;4.90;2.85;;;;;;;29.68;22.77;99151.85;1738623;82;25770;-62
2022/05/10 11:12:09;;;;;;;4.50;2.40;;;;;;;30.12;22.61;99147.34;1740010;82;25755;-64
2022/05/10 11:14:53;;;;;;;5.40;2.95;;;;;;;30.61;22.42;99142.45;1740160;82;25794;-64
2022/05/10 11:17:31;;;;;;;3.60;2.30;;;;;;;30.70;22.44;99144.66;1739977;82;25478;-63
2022/05/10 11:20:11;;;;;;;5.55;2.50;;;;;;;30.87;21.21;99136.20;1740114;82;28355;-62
2022/05/10 11:22:41;;;;;;;3.75;2.52;;;;;;;30.60;21.72;99125.31;1739864;82;25759;-63
2022/05/10 11:25:25;;;;;;;3.20;2.40;;;;;;;30.68;22.56;99125.91;1740282;82;25678;-62
2022/05/10 11:28:45;;;;;;;3.55;2.20;;;;;;;30.94;21.50;99127.52;1739885;82;25695;-61
2022/05/10 11:31:32;;;;;;;3.70;2.05;;;;;;;31.08;21.23;99122.76;1740014;82;25475;-63
2022/05/10 11:34:16;;;;;;;3.10;2.10;;;;;;;31.14;21.13;99121.76;1739962;82;27452;-64
2022/05/10 11:36:49;;;;;;;3.52;2.37;;;;;;;31.50;21.35;99118.62;1739538;82;25663;-64
2022/05/10 11:39:50;;;;;;;4.37;2.30;;;;;;;31.85;22.31;99119.45;1743468;81;25811;-64
2022/05/10 11:42:32;;;;;;;2.67;2.00;;;;;;;32.17;21.07;99107.80;1752547;81;26176;-64
2022/05/10 11:45:19;;;;;;;3.12;2.20;;;;;;;32.25;21.30;99106.15;1753199;81;25608;-64
2022/05/10 11:47:57;;;;;;;2.37;1.92;;;;;;;32.32;20.75;99100.89;1753281;81;27394;-64
2022/05/10 11:54:41;;;;;;;3.37;2.27;;;;;;;31.45;20.14;99088.01;1753128;81;25674;-64
2022/05/10 11:57:17;;;;;;;3.25;2.10;;;;;;;30.82;20.96;99092.26;1749042;81;26358;-64
2022/05/10 11:59:45;;;;;;;5.22;2.30;;;;;;;31.15;21.00;99085.77;1753370;81;25468;-64
2022/05/10 12:02:34;;;;;;;3.47;2.20;;;;;;;31.60;21.21;99081.30;1752784;81;27429;-65
2022/05/10 12:05:15;;;;;;;3.12;2.00;;;;;;;31.84;21.18;99073.15;1752773;81;25634;-64
2022/05/10 12:07:52;;;;;;;3.55;2.22;;;;;;;31.85;20.95;99083.23;1730555;82;25453;-63
2022/05/10 12:10:41;;;;;;;4.65;2.47;;;;;;;31.66;21.00;99073.84;1750014;81;25590;-64
2022/05/10 12:22:13;;;;;;;8.73;3.50;;;;;;;31.06;21.04;99060.94;1750925;82;25605;-64
2022/05/10 12:24:44;;;;;;;2.85;2.10;;;;;;;31.67;22.21;99068.98;1751173;81;25433;-63
2022/05/10 12:27:18;;;;;;;3.90;2.45;;;;;;;32.09;20.86;99071.63;1751107;81;25451;-64
2022/05/10 12:29:52;;;;;;;4.92;2.50;;;;;;;32.30;19.85;99060.23;1751371;81;27359;-61